createdAt,value
2022-09-23T00:00:44.443Z,878.9
2022-09-23T00:02:28.123Z,874.2
2022-09-23T00:04:11.844Z,871.4
2022-09-23T00:05:55.519Z,871.2
2022-09-23T00:07:39.314Z,870.1
2022-09-23T00:09:22.923Z,867.2
2022-09-23T00:11:06.671Z,863.5
2022-09-23T00:12:50.331Z,860
2022-09-23T00:16:17.731Z,850.9
2022-09-23T00:18:01.448Z,849.1
2022-09-23T00:19:45.131Z,840.1
2022-09-23T00:21:28.883Z,834.3
2022-09-23T00:23:12.549Z,833.9
2022-09-23T00:24:56.258Z,832.6
2022-09-23T00:26:39.923Z,832.1
2022-09-23T00:28:23.646Z,830.8
2022-09-23T00:30:07.358Z,828.5
2022-09-23T00:31:51.110Z,826.1
2022-09-23T00:33:34.755Z,827.3
2022-09-23T00:35:18.449Z,828.5
2022-09-23T00:37:02.180Z,824.8
2022-09-23T00:38:45.888Z,824
2022-09-23T00:40:29.548Z,822.5
2022-09-23T00:42:13.247Z,819.8
2022-09-23T00:43:56.983Z,817.7
2022-09-23T00:45:40.679Z,815.2
2022-09-23T00:47:24.383Z,809.1
2022-09-23T00:49:08.102Z,805.1
2022-09-23T00:50:51.771Z,805.9
2022-09-23T00:52:35.456Z,804
2022-09-23T00:54:19.140Z,804.1
2022-09-23T00:56:02.855Z,799.4
2022-09-23T00:57:46.565Z,797.4
2022-09-23T00:59:30.278Z,795.8
2022-09-23T01:01:13.959Z,797.3
2022-09-23T01:02:57.667Z,797.5
2022-09-23T01:04:41.475Z,796.9
2022-09-23T01:06:25.119Z,795
2022-09-23T01:08:08.792Z,792.5
2022-09-23T01:09:52.490Z,786.7
2022-09-23T01:11:36.187Z,780.5
2022-09-23T01:13:19.896Z,779.3
2022-09-23T01:15:03.596Z,777.3
2022-09-23T01:16:47.289Z,771.3
2022-09-23T01:18:30.987Z,772.4
2022-09-23T01:20:14.720Z,771.1
2022-09-23T01:21:58.412Z,766.5
2022-09-23T01:23:42.114Z,762.7
2022-09-23T01:25:25.810Z,760.1
2022-09-23T01:27:09.507Z,757.2
2022-09-23T01:28:53.267Z,752.8
2022-09-23T01:30:36.922Z,753.3
2022-09-23T01:32:20.643Z,755.4
2022-09-23T01:34:04.326Z,758.8
2022-09-23T01:35:48.037Z,760.3
2022-09-23T01:37:31.726Z,758.4
2022-09-23T01:39:15.432Z,756.7
2022-09-23T01:40:59.142Z,758.4
2022-09-23T01:42:42.839Z,754.3
2022-09-23T01:44:26.523Z,750.4
2022-09-23T01:46:10.307Z,750.7
2022-09-23T01:47:54.015Z,752.3
2022-09-23T01:49:37.701Z,748
2022-09-23T01:51:21.332Z,743.4
2022-09-23T01:53:05.086Z,740.7
2022-09-23T01:54:48.730Z,739
2022-09-23T01:56:32.469Z,739.7
2022-09-23T01:58:16.139Z,740.3
2022-09-23T01:59:59.929Z,740
2022-09-23T02:01:43.567Z,735.3
2022-09-23T02:03:27.236Z,733.8
2022-09-23T02:05:10.924Z,731.7
2022-09-23T02:06:54.644Z,725.9
2022-09-23T02:08:38.358Z,724.6
2022-09-23T02:10:22.034Z,727.1
2022-09-23T02:12:05.763Z,727.5
2022-09-23T02:13:49.456Z,725
2022-09-23T02:17:16.852Z,721.8
2022-09-23T02:19:00.550Z,718.6
2022-09-23T02:20:44.250Z,718.8
2022-09-23T02:22:27.959Z,717.5
2022-09-23T02:24:11.687Z,713.8
2022-09-23T02:25:55.371Z,713.2
2022-09-23T02:27:39.047Z,711.6
2022-09-23T02:29:22.758Z,709.9
2022-09-23T02:31:06.456Z,706.1
2022-09-23T02:32:50.221Z,702.5
2022-09-23T02:34:33.843Z,700
2022-09-23T02:36:17.563Z,696.8
2022-09-23T02:38:01.256Z,695.5
2022-09-23T02:39:44.959Z,693.4
2022-09-23T02:41:28.644Z,692.9
2022-09-23T02:43:12.344Z,689.9
2022-09-23T02:44:56.057Z,687.9
2022-09-23T02:46:39.787Z,684.4
2022-09-23T02:48:23.484Z,681.5
2022-09-23T02:50:07.206Z,677.9
2022-09-23T02:51:50.866Z,675.5
2022-09-23T02:53:34.573Z,671.3
2022-09-23T02:55:18.282Z,672
2022-09-23T02:57:02.070Z,672.2
2022-09-23T02:58:45.669Z,668.4
2022-09-23T03:00:29.381Z,665
2022-09-23T03:02:13.077Z,663.1
2022-09-23T03:03:56.777Z,661.1
2022-09-23T03:05:40.480Z,661.7
2022-09-23T03:07:24.193Z,661.8
2022-09-23T03:09:07.906Z,665
2022-09-23T03:10:51.583Z,664.8
2022-09-23T03:12:35.280Z,662.4
2022-09-23T03:14:18.988Z,663.2
2022-09-23T03:16:02.682Z,662.3
2022-09-23T03:17:46.366Z,662.9
2022-09-23T03:19:30.086Z,662.4
2022-09-23T03:21:13.788Z,660.5
2022-09-23T03:22:57.487Z,658.4
2022-09-23T03:24:41.186Z,658.9
2022-09-23T03:26:24.893Z,658.5
2022-09-23T03:28:08.600Z,656.2
2022-09-23T03:29:52.322Z,653.9
2022-09-23T03:31:36.023Z,653.9
2022-09-23T03:33:19.708Z,657.3
2022-09-23T03:35:03.405Z,658.6
2022-09-23T03:36:47.132Z,656.2
2022-09-23T03:38:30.820Z,655.7
2022-09-23T03:40:14.526Z,652.8
2022-09-23T03:41:58.286Z,653.2
2022-09-23T03:43:41.900Z,652.4
2022-09-23T03:45:25.632Z,652.2
2022-09-23T03:47:09.372Z,652.4
2022-09-23T03:48:53.005Z,649.9
2022-09-23T03:50:36.755Z,648.5
2022-09-23T03:52:20.417Z,649
2022-09-23T03:54:04.100Z,648.9
2022-09-23T03:55:47.804Z,645.6
2022-09-23T03:57:31.506Z,646.5
2022-09-23T03:59:15.199Z,646.5
2022-09-23T04:00:58.908Z,647.1
2022-09-23T04:02:42.660Z,643.6
2022-09-23T04:04:26.315Z,643.4
2022-09-23T04:06:10.014Z,641.9
2022-09-23T04:07:53.741Z,639.3
2022-09-23T04:09:37.407Z,634.3
2022-09-23T04:11:21.143Z,633.5
2022-09-23T04:13:04.840Z,631.1
2022-09-23T04:14:48.537Z,627.6
2022-09-23T04:16:32.232Z,622.7
2022-09-23T04:18:15.935Z,622.9
2022-09-23T04:19:59.629Z,620.9
2022-09-23T04:21:43.332Z,616.2
2022-09-23T04:23:27.034Z,616.1
2022-09-23T04:25:10.763Z,617
2022-09-23T04:26:54.445Z,615.7
2022-09-23T04:28:38.141Z,615
2022-09-23T04:30:21.876Z,614.2
2022-09-23T04:32:05.538Z,615.1
2022-09-23T04:33:49.227Z,614.7
2022-09-23T04:35:32.962Z,615.4
2022-09-23T04:37:16.642Z,615
2022-09-23T04:39:00.377Z,615
2022-09-23T04:40:44.036Z,615.9
2022-09-23T04:42:27.745Z,617
2022-09-23T04:44:11.443Z,615.7
2022-09-23T04:45:55.155Z,617.5
2022-09-23T04:47:38.854Z,615.6
2022-09-23T04:49:22.542Z,613
2022-09-23T04:51:06.245Z,614.6
2022-09-23T04:52:49.954Z,614.5
2022-09-23T04:54:33.662Z,614.6
2022-09-23T04:56:17.358Z,611.6
2022-09-23T04:58:01.101Z,610.5
2022-09-23T04:59:44.753Z,608.1
2022-09-23T05:01:28.517Z,607.4
2022-09-23T05:03:12.151Z,606.1
2022-09-23T05:04:55.929Z,607
2022-09-23T05:06:39.559Z,606.4
2022-09-23T05:08:23.252Z,601.9
2022-09-23T05:10:06.962Z,602.4
2022-09-23T05:11:50.695Z,601.9
2022-09-23T05:13:34.355Z,603.4
2022-09-23T05:15:18.146Z,601.4
2022-09-23T05:17:01.764Z,599.4
2022-09-23T05:18:45.459Z,599.4
2022-09-23T05:20:29.145Z,595.7
2022-09-23T05:22:12.916Z,598.3
2022-09-23T05:23:56.569Z,598.7
2022-09-23T05:25:40.348Z,598.2
2022-09-23T05:27:24.044Z,598.1
2022-09-23T05:29:07.719Z,601.4
2022-09-23T05:30:51.367Z,603.3
2022-09-23T05:32:35.089Z,601.3
2022-09-23T05:34:18.804Z,600.5
2022-09-23T05:36:02.468Z,600.4
2022-09-23T05:37:46.197Z,599
2022-09-23T05:39:29.875Z,598.1
2022-09-23T05:41:13.595Z,594.8
2022-09-23T05:42:57.280Z,593.3
2022-09-23T05:44:41.004Z,588.9
2022-09-23T05:46:24.689Z,588.1
2022-09-23T05:48:08.457Z,588
2022-09-23T05:49:52.080Z,586.7
2022-09-23T05:51:35.795Z,583.8
2022-09-23T05:53:19.587Z,586
2022-09-23T05:55:03.193Z,584.1
2022-09-23T05:56:47.024Z,584
2022-09-23T05:58:30.593Z,578.9
2022-09-23T06:00:14.522Z,575.6
2022-09-23T06:01:57.991Z,575.9
2022-09-23T06:03:41.764Z,580.6
2022-09-23T06:05:25.463Z,582.2
2022-09-23T06:07:09.096Z,581.7
2022-09-23T06:08:52.886Z,580.6
2022-09-23T06:10:36.577Z,579.2
2022-09-23T06:12:20.303Z,578.1
2022-09-23T06:14:03.953Z,579.6
2022-09-23T06:15:47.620Z,580.9
2022-09-23T06:17:31.304Z,584.7
2022-09-23T06:19:15.094Z,581.5
2022-09-23T06:20:58.758Z,578.4
2022-09-23T06:22:42.486Z,577.4
2022-09-23T06:24:26.246Z,574.6
2022-09-23T06:26:09.820Z,573
2022-09-23T06:27:53.519Z,572.4
2022-09-23T06:29:37.300Z,574.5
2022-09-23T06:31:20.939Z,573.1
2022-09-23T06:33:04.686Z,576.5
2022-09-23T06:34:48.338Z,577.5
2022-09-23T06:36:32.199Z,576.1
2022-09-23T06:38:15.756Z,575.3
2022-09-23T06:39:59.433Z,573.2
2022-09-23T06:41:43.145Z,573.1
2022-09-23T06:43:26.840Z,572.8
2022-09-23T06:45:10.553Z,570.7
2022-09-23T06:46:54.234Z,567.6
2022-09-23T06:48:37.941Z,568.9
2022-09-23T06:50:21.658Z,568.8
2022-09-23T06:52:05.365Z,572.1
2022-09-23T06:53:49.039Z,573.8
2022-09-23T06:55:32.746Z,574.6
2022-09-23T06:57:16.436Z,576.6
2022-09-23T06:59:00.174Z,581.9
2022-09-23T07:00:43.843Z,586.3
2022-09-23T07:02:27.559Z,590.9
2022-09-23T07:04:11.243Z,593.2
2022-09-23T07:05:54.955Z,596
2022-09-23T07:07:38.638Z,597.7
2022-09-23T07:09:22.345Z,599.6
2022-09-23T07:11:06.045Z,597.7
2022-09-23T07:12:49.745Z,596.4
2022-09-23T07:14:33.446Z,597.4
2022-09-23T07:16:17.134Z,596.3
2022-09-23T07:18:00.852Z,595.7
2022-09-23T07:19:44.569Z,598.6
2022-09-23T07:21:28.262Z,597.3
2022-09-23T07:23:11.950Z,596.6
2022-09-23T07:24:55.642Z,598.4
2022-09-23T07:26:39.356Z,602.5
2022-09-23T07:28:23.043Z,606.2
2022-09-23T07:30:06.888Z,613
2022-09-23T07:31:50.523Z,620.2
2022-09-23T07:33:34.184Z,625.9
2022-09-23T07:35:17.870Z,630.8
2022-09-23T07:37:01.546Z,635
2022-09-23T07:38:45.257Z,637
2022-09-23T07:40:28.967Z,636.1
2022-09-23T07:42:12.661Z,635.2
2022-09-23T07:43:56.347Z,634.5
2022-09-23T07:45:40.052Z,632.8
2022-09-23T07:47:23.765Z,631.9
2022-09-23T07:49:07.471Z,631.1
2022-09-23T07:50:51.185Z,628.9
2022-09-23T07:52:34.887Z,629.3
2022-09-23T07:54:18.575Z,628.9
2022-09-23T07:56:02.274Z,627.1
2022-09-23T07:57:45.997Z,629.8
2022-09-23T07:59:29.695Z,632.5
2022-09-23T08:01:13.390Z,632
2022-09-23T08:02:57.086Z,635.8
2022-09-23T08:04:40.796Z,635
2022-09-23T08:06:24.493Z,632.5
2022-09-23T08:08:08.208Z,635.3
2022-09-23T08:09:51.901Z,636.1
2022-09-23T08:11:35.603Z,636.9
2022-09-23T08:13:19.320Z,637.6
2022-09-23T08:15:03.044Z,637.6
2022-09-23T08:16:46.706Z,637.9
2022-09-23T08:18:30.421Z,638.8
2022-09-23T08:20:14.114Z,639
2022-09-23T08:21:57.826Z,640.9
2022-09-23T08:23:41.515Z,641.8
2022-09-23T08:25:25.224Z,641.7
2022-09-23T08:27:08.989Z,642.8
2022-09-23T08:28:52.655Z,643.2
2022-09-23T08:30:36.332Z,644.3
2022-09-23T08:32:20.038Z,647.7
2022-09-23T08:34:03.742Z,646.1
2022-09-23T08:35:47.448Z,646.4
2022-09-23T08:37:31.145Z,646
2022-09-23T08:39:14.855Z,643.6
2022-09-23T08:40:58.542Z,640.5
2022-09-23T08:42:42.267Z,642.1
2022-09-23T08:44:25.936Z,642.2
2022-09-23T08:46:09.646Z,640
2022-09-23T08:47:53.353Z,640.6
2022-09-23T08:49:37.067Z,638.8
2022-09-23T08:51:20.763Z,636.1
2022-09-23T08:53:04.443Z,635.8
2022-09-23T08:54:48.161Z,637.3
2022-09-23T08:56:31.864Z,637.4
2022-09-23T08:58:15.552Z,638.3
2022-09-23T08:59:59.272Z,639.4
2022-09-23T09:01:42.980Z,636.5
2022-09-23T09:03:26.667Z,633.3
2022-09-23T09:05:10.369Z,634.5
2022-09-23T09:06:54.077Z,631.9
2022-09-23T09:08:37.761Z,628.3
2022-09-23T09:10:21.482Z,628.1
2022-09-23T09:12:05.176Z,630.1
2022-09-23T09:13:48.882Z,627.7
2022-09-23T09:15:32.583Z,628.1
2022-09-23T09:17:16.278Z,691
2022-09-23T09:19:00.013Z,701.4
2022-09-23T09:20:43.695Z,682.8
2022-09-23T09:22:27.394Z,667.7
2022-09-23T09:24:11.095Z,657.7
2022-09-23T09:25:54.797Z,652.9
2022-09-23T09:27:38.501Z,646.2
2022-09-23T09:29:22.300Z,640
2022-09-23T09:31:06.009Z,637.3
2022-09-23T09:32:49.664Z,635
2022-09-23T09:34:33.284Z,631.6
2022-09-23T09:36:16.982Z,629
2022-09-23T09:38:00.693Z,627.7
2022-09-23T09:39:44.447Z,625.3
2022-09-23T09:41:28.083Z,625.7
2022-09-23T09:43:11.801Z,624.2
2022-09-23T09:44:55.493Z,624
2022-09-23T09:46:39.209Z,626.4
2022-09-23T09:48:22.907Z,625.5
2022-09-23T09:50:06.605Z,624.8
2022-09-23T09:51:50.314Z,625.8
2022-09-23T09:53:33.960Z,627.5
2022-09-23T09:55:17.710Z,631.2
2022-09-23T09:57:01.363Z,632.2
2022-09-23T09:58:45.049Z,639.3
2022-09-23T10:00:28.763Z,646.8
2022-09-23T10:02:12.459Z,654.2
2022-09-23T10:03:56.174Z,658
2022-09-23T10:05:39.852Z,661.4
2022-09-23T10:07:23.555Z,664.8
2022-09-23T10:09:07.262Z,666
2022-09-23T10:10:50.980Z,669.4
2022-09-23T10:12:34.684Z,668.2
2022-09-23T10:14:18.357Z,665.7
2022-09-23T10:16:02.075Z,666.7
2022-09-23T10:17:45.764Z,670.8
2022-09-23T10:19:29.477Z,677.4
2022-09-23T10:21:13.179Z,684.2
2022-09-23T10:22:56.869Z,719.8
2022-09-23T10:24:40.645Z,771.8
2022-09-23T10:26:24.283Z,776.4
2022-09-23T10:28:08.022Z,779.8
2022-09-23T10:29:51.694Z,785.1
2022-09-23T10:31:35.385Z,791.6
2022-09-23T10:33:19.107Z,791.9
2022-09-23T10:35:02.807Z,795.8
2022-09-23T10:36:46.511Z,799.5
2022-09-23T10:38:30.204Z,803.6
2022-09-23T10:40:13.901Z,808
2022-09-23T10:41:57.599Z,811.7
2022-09-23T10:43:41.318Z,817.5
2022-09-23T10:45:24.999Z,822.2
2022-09-23T10:47:08.723Z,829.1
2022-09-23T10:48:52.426Z,834.1
2022-09-23T10:50:36.120Z,843.3
2022-09-23T10:52:19.815Z,851.3
2022-09-23T10:54:03.563Z,853.3
2022-09-23T10:55:47.216Z,856.5
2022-09-23T10:57:30.919Z,857.5
2022-09-23T10:59:14.609Z,858
2022-09-23T11:00:58.332Z,853.4
2022-09-23T11:02:42.053Z,850
2022-09-23T11:04:25.724Z,846.1
2022-09-23T11:06:09.426Z,853.9
2022-09-23T11:07:53.126Z,855.4
2022-09-23T11:09:36.831Z,866.3
2022-09-23T11:11:20.561Z,893.6
2022-09-23T11:13:04.329Z,904.5
2022-09-23T11:14:47.943Z,911.2
2022-09-23T11:16:31.655Z,919.8
2022-09-23T11:18:15.361Z,920.1
2022-09-23T11:19:59.053Z,922.2
2022-09-23T11:21:42.763Z,929.9
2022-09-23T11:23:26.458Z,928.1
2022-09-23T11:25:10.157Z,932
2022-09-23T11:26:53.858Z,937.2
2022-09-23T11:28:37.604Z,937.4
2022-09-23T11:30:21.268Z,934.8
2022-09-23T11:32:05.005Z,936.7
2022-09-23T11:33:48.725Z,937.7
2022-09-23T11:35:32.388Z,938.3
2022-09-23T11:37:16.094Z,934.4
2022-09-23T11:38:59.808Z,930.6
2022-09-23T11:40:43.503Z,929.8
2022-09-23T11:42:27.195Z,922.1
2022-09-23T11:44:10.910Z,916.9
2022-09-23T11:45:54.599Z,913.5
2022-09-23T11:47:38.301Z,909.6
2022-09-23T11:49:22.017Z,904.6
2022-09-23T11:51:05.750Z,900.6
2022-09-23T11:52:49.422Z,897.5
2022-09-23T11:54:33.116Z,898.8
2022-09-23T11:56:16.968Z,896.9
2022-09-23T11:58:00.527Z,894.7
2022-09-23T11:59:44.225Z,891.4
2022-09-23T12:01:28.084Z,893.3
2022-09-23T12:03:11.621Z,895.6
2022-09-23T12:04:55.464Z,898.4
2022-09-23T12:06:39.039Z,899.7
2022-09-23T12:08:22.730Z,905
2022-09-23T12:10:06.431Z,907.4
2022-09-23T12:11:50.175Z,912.2
2022-09-23T12:13:33.834Z,917.7
2022-09-23T12:15:17.569Z,922.7
2022-09-23T12:17:01.300Z,923.6
2022-09-23T12:18:45.017Z,919.4
2022-09-23T12:20:28.751Z,915.4
2022-09-23T12:22:12.492Z,911.4
2022-09-23T12:23:56.046Z,912.9
2022-09-23T12:25:39.820Z,913.6
2022-09-23T12:27:23.614Z,911.7
2022-09-23T12:29:07.358Z,908.6
2022-09-23T12:30:51.041Z,903.5
2022-09-23T12:32:34.729Z,900.7
2022-09-23T12:34:18.362Z,899
2022-09-23T12:36:02.040Z,896.6
2022-09-23T12:37:45.833Z,895.8
2022-09-23T12:39:29.543Z,896.7
2022-09-23T12:41:13.241Z,897.8
2022-09-23T12:42:56.959Z,896.2
2022-09-23T12:44:40.653Z,893.1
2022-09-23T12:46:24.354Z,891.2
2022-09-23T12:48:08.046Z,894.7
2022-09-23T12:49:51.761Z,896.3
2022-09-23T12:51:35.447Z,898.5
2022-09-23T12:53:19.156Z,896.9
2022-09-23T12:55:02.705Z,894.8
2022-09-23T12:56:46.476Z,892.3
2022-09-23T12:58:30.285Z,891.6
2022-09-23T13:00:13.909Z,891.3
2022-09-23T13:01:57.531Z,892.5
2022-09-23T13:03:41.406Z,888.5
2022-09-23T13:05:25.074Z,886.2
2022-09-23T13:07:08.799Z,882.9
2022-09-23T13:08:52.409Z,880.7
2022-09-23T13:10:36.262Z,875.2
2022-09-23T13:12:19.833Z,872.3
2022-09-23T13:14:03.461Z,872
2022-09-23T13:15:47.319Z,872
2022-09-23T13:17:30.864Z,870.5
2022-09-23T13:19:14.625Z,868.8
2022-09-23T13:20:58.423Z,867.4
2022-09-23T13:22:42.121Z,865.4
2022-09-23T13:24:25.801Z,865.4
2022-09-23T13:26:09.497Z,862.3
2022-09-23T13:27:53.207Z,861.4
2022-09-23T13:29:36.921Z,859.2
2022-09-23T13:31:20.610Z,854.1
2022-09-23T13:33:04.323Z,849.2
2022-09-23T13:34:48.058Z,847.6
2022-09-23T13:36:31.718Z,845.8
2022-09-23T13:38:15.444Z,847.6
2022-09-23T13:39:59.157Z,845.6
2022-09-23T13:41:42.856Z,846.8
2022-09-23T13:43:26.557Z,846
2022-09-23T13:45:10.240Z,847.1
2022-09-23T13:46:53.972Z,845.5
2022-09-23T13:48:37.676Z,837
2022-09-23T13:50:21.375Z,826.5
2022-09-23T13:52:05.004Z,813.8
2022-09-23T13:53:48.845Z,802.4
2022-09-23T13:55:32.479Z,782.6
2022-09-23T13:57:16.299Z,769.3
2022-09-23T13:58:59.872Z,762
2022-09-23T14:00:43.576Z,754.4
2022-09-23T14:02:27.288Z,749.6
2022-09-23T14:04:10.875Z,742.4
2022-09-23T14:05:54.688Z,730.9
2022-09-23T14:07:38.400Z,728
2022-09-23T14:09:21.963Z,721.8
2022-09-23T14:11:05.854Z,718.8
2022-09-23T14:12:49.379Z,717.1
2022-09-23T14:14:33.204Z,715.3
2022-09-23T14:16:16.910Z,716
2022-09-23T14:18:00.553Z,713.8
2022-09-23T14:19:44.315Z,711.3
2022-09-23T14:21:28.040Z,709.7
2022-09-23T14:23:11.675Z,708.6
2022-09-23T14:24:55.431Z,707.8
2022-09-23T14:26:39.145Z,700.1
2022-09-23T14:28:22.718Z,696.8
2022-09-23T14:30:06.445Z,693.6
2022-09-23T14:31:50.220Z,688.8
2022-09-23T14:33:33.937Z,685.3
2022-09-23T14:35:17.581Z,683.7
2022-09-23T14:37:01.343Z,679
2022-09-23T14:38:45.026Z,679.1
2022-09-23T14:40:28.753Z,677.1
2022-09-23T14:42:12.407Z,675.2
2022-09-23T14:43:56.003Z,675.4
2022-09-23T14:45:39.841Z,674.4
2022-09-23T14:47:23.510Z,672.7
2022-09-23T14:49:07.098Z,670.3
2022-09-23T14:50:50.960Z,670.9
2022-09-23T14:52:34.646Z,668.8
2022-09-23T14:54:18.345Z,665.9
2022-09-23T14:56:02.054Z,666.6
2022-09-23T14:57:45.747Z,667.4
2022-09-23T14:59:29.418Z,669
2022-09-23T15:01:13.143Z,669.3
2022-09-23T15:02:56.705Z,671.8
2022-09-23T15:04:40.539Z,673.9
2022-09-23T15:06:24.240Z,676.1
2022-09-23T15:08:07.943Z,689.6
2022-09-23T15:09:51.640Z,691.5
2022-09-23T15:11:35.370Z,693.5
2022-09-23T15:13:18.750Z,693.6
2022-09-23T15:15:02.295Z,693.1
2022-09-23T15:16:46.155Z,694.3
2022-09-23T15:18:29.849Z,694
2022-09-23T15:20:13.402Z,697.8
2022-09-23T15:21:57.252Z,701.9
2022-09-23T15:23:40.959Z,707.5
2022-09-23T15:25:24.620Z,711.6
2022-09-23T15:27:08.320Z,712.9
2022-09-23T15:28:52.084Z,716.3
2022-09-23T15:30:35.611Z,721.6
2022-09-23T15:32:19.456Z,722.1
2022-09-23T15:34:03.015Z,720.1
2022-09-23T15:35:46.848Z,723.4
2022-09-23T15:37:30.554Z,728.8
2022-09-23T15:39:14.250Z,733.2
2022-09-23T15:40:57.957Z,738
2022-09-23T15:42:41.661Z,741.5
2022-09-23T15:44:25.212Z,743
2022-09-23T15:46:09.052Z,747.6
2022-09-23T15:47:52.779Z,747.6
2022-09-23T15:49:36.463Z,748.1
2022-09-23T15:51:20.179Z,745.8
2022-09-23T15:53:03.892Z,747.3
2022-09-23T15:54:47.416Z,746.9
2022-09-23T15:56:31.210Z,746
2022-09-23T15:58:14.905Z,743.9
2022-09-23T15:59:58.577Z,746.2
2022-09-23T16:01:42.220Z,747.6
2022-09-23T16:03:25.940Z,750.6
2022-09-23T16:05:09.663Z,751.8
2022-09-23T16:06:53.392Z,752.3
2022-09-23T16:08:37.036Z,755
2022-09-23T16:10:20.825Z,753.5
2022-09-23T16:12:04.445Z,751.8
2022-09-23T16:13:48.177Z,755.8
2022-09-23T16:15:31.845Z,758.4
2022-09-23T16:17:15.538Z,759.9
2022-09-23T16:18:59.383Z,760
2022-09-23T16:20:42.978Z,759.7
2022-09-23T16:22:26.692Z,761.8
2022-09-23T16:24:10.397Z,767.4
2022-09-23T16:25:54.063Z,771.7
2022-09-23T16:27:37.776Z,776.4
2022-09-23T16:29:21.553Z,782.8
2022-09-23T16:31:05.159Z,784.2
2022-09-23T16:32:48.947Z,784.1
2022-09-23T16:34:32.669Z,781
2022-09-23T16:36:16.323Z,777.4
2022-09-23T16:38:00.007Z,776.5
2022-09-23T16:39:43.740Z,772.9
2022-09-23T16:41:27.490Z,776.4
2022-09-23T16:43:11.140Z,779.5
2022-09-23T16:44:54.923Z,784.3
2022-09-23T16:46:38.512Z,788.3
2022-09-23T16:48:22.210Z,790.4
2022-09-23T16:50:05.904Z,790.1
2022-09-23T16:51:49.604Z,792.4
2022-09-23T16:53:33.374Z,794
2022-09-23T16:55:17.088Z,799.1
2022-09-23T16:57:00.808Z,802.1
2022-09-23T16:58:44.429Z,803.6
2022-09-23T17:00:28.158Z,802.2
2022-09-23T17:02:11.911Z,800.6
2022-09-23T17:03:55.552Z,799.3
2022-09-23T17:05:39.225Z,803.6
2022-09-23T17:07:22.982Z,806.5
2022-09-23T17:09:06.632Z,811.1
2022-09-23T17:10:50.380Z,815.8
2022-09-23T17:12:34.061Z,823.5
2022-09-23T17:14:17.783Z,828.3
2022-09-23T17:16:01.429Z,827.7
2022-09-23T17:17:45.124Z,832.6
2022-09-23T17:19:28.933Z,831.8
2022-09-23T17:21:12.614Z,827
2022-09-23T17:22:56.299Z,828.4
2022-09-23T17:24:39.977Z,835.4
2022-09-23T17:26:23.645Z,843.2
2022-09-23T17:28:07.331Z,849.3
2022-09-23T17:29:51.035Z,867.3
2022-09-23T17:31:34.856Z,880.6
2022-09-23T17:33:18.446Z,892.1
2022-09-23T17:35:02.231Z,897.2
2022-09-23T17:36:45.877Z,902.8
2022-09-23T17:38:29.574Z,912.3
2022-09-23T17:40:13.269Z,916.5
2022-09-23T17:41:56.987Z,916.7
2022-09-23T17:43:40.687Z,916.8
2022-09-23T17:45:24.377Z,913.7
2022-09-23T17:47:08.092Z,911.5
2022-09-23T17:48:51.815Z,910.3
2022-09-23T17:50:35.488Z,911.6
2022-09-23T17:52:19.232Z,916.1
2022-09-23T17:54:02.919Z,916.3
2022-09-23T17:55:46.575Z,914.7
2022-09-23T17:57:30.271Z,915.9
2022-09-23T17:59:14.013Z,916.7
2022-09-23T18:00:57.669Z,915.9
2022-09-23T18:02:41.370Z,916
2022-09-23T18:04:25.069Z,912.6
2022-09-23T18:06:08.954Z,909.8
2022-09-23T18:07:52.479Z,907.7
2022-09-23T18:09:36.179Z,907.8
2022-09-23T18:11:19.886Z,909
2022-09-23T18:13:03.589Z,910.6
2022-09-23T18:14:47.318Z,911.6
2022-09-23T18:16:30.988Z,908.7
2022-09-23T18:18:14.702Z,908.5
2022-09-23T18:19:58.414Z,907.2
2022-09-23T18:21:42.084Z,908.6
2022-09-23T18:23:25.848Z,908.7
2022-09-23T18:25:09.513Z,907.5
2022-09-23T18:26:53.213Z,905.8
2022-09-23T18:28:36.893Z,906.3
2022-09-23T18:30:20.595Z,909.3
2022-09-23T18:32:04.317Z,910.1
2022-09-23T18:33:48.029Z,912.8
2022-09-23T18:35:31.760Z,913.9
2022-09-23T18:37:15.564Z,914.8
2022-09-23T18:38:59.143Z,914.5
2022-09-23T18:40:42.814Z,915.4
2022-09-23T18:42:26.517Z,917.9
2022-09-23T18:44:10.242Z,918.9
2022-09-23T18:45:53.911Z,920.7
2022-09-23T18:47:37.659Z,919.3
2022-09-23T18:49:21.308Z,918
2022-09-23T18:51:05.019Z,917.5
2022-09-23T18:52:48.720Z,912.6
2022-09-23T18:54:32.423Z,909.9
2022-09-23T18:56:16.138Z,907.2
2022-09-23T18:57:59.820Z,905.5
2022-09-23T18:59:43.520Z,904
2022-09-23T19:01:27.312Z,904.3
2022-09-23T19:03:10.932Z,905.1
2022-09-23T19:04:54.639Z,908.6
2022-09-23T19:06:38.335Z,911.5
2022-09-23T19:08:22.036Z,915.2
2022-09-23T19:10:05.811Z,915
2022-09-23T19:11:49.454Z,916.3
2022-09-23T19:13:33.167Z,918
2022-09-23T19:15:16.850Z,922.2
2022-09-23T19:17:00.589Z,925
2022-09-23T19:18:44.250Z,930.1
2022-09-23T19:20:27.968Z,935.4
2022-09-23T19:22:11.674Z,947.4
2022-09-23T19:23:55.364Z,957.8
2022-09-23T19:25:39.047Z,967.6
2022-09-23T19:27:22.776Z,988
2022-09-23T19:29:06.452Z,1019.5
2022-09-23T19:30:50.159Z,1032
2022-09-23T19:32:33.878Z,1034.8
2022-09-23T19:34:17.594Z,1039.9
2022-09-23T19:36:01.298Z,1053.4
2022-09-23T19:37:44.994Z,1071.8
2022-09-23T19:39:28.666Z,1079.1
2022-09-23T19:41:12.372Z,1086.3
2022-09-23T19:42:56.054Z,1088.8
2022-09-23T19:44:39.758Z,1089.4
2022-09-23T19:46:23.463Z,1092.5
2022-09-23T19:48:07.168Z,1100.4
2022-09-23T19:49:50.889Z,1107
2022-09-23T19:51:34.592Z,1105.5
2022-09-23T19:53:18.273Z,1106.4
2022-09-23T19:55:02.018Z,1109.7
2022-09-23T19:56:45.668Z,1108.7
2022-09-23T19:58:29.378Z,1107.6
2022-09-23T20:00:13.091Z,1108.8
2022-09-23T20:01:56.815Z,1111.8
2022-09-23T20:03:40.551Z,1120.1
2022-09-23T20:05:24.206Z,1112.7
2022-09-23T20:07:07.895Z,1103.2
2022-09-23T20:08:51.643Z,1094.4
2022-09-23T20:10:35.314Z,1097.1
2022-09-23T20:12:19.017Z,1105.9
2022-09-23T20:14:02.753Z,1108.3
2022-09-23T20:15:46.436Z,1108.3
2022-09-23T20:17:30.167Z,1106.5
2022-09-23T20:19:13.871Z,1106.7
2022-09-23T20:20:57.601Z,1111.8
2022-09-23T20:22:41.269Z,1107.6
2022-09-23T20:24:25.055Z,1098.8
2022-09-23T20:26:08.619Z,1083.8
2022-09-23T20:27:52.401Z,1074.9
2022-09-23T20:29:36.079Z,1071.1
2022-09-23T20:31:19.728Z,1068.6
2022-09-23T20:33:03.439Z,1069.3
2022-09-23T20:34:47.132Z,1067.5
2022-09-23T20:36:30.841Z,1065.5
2022-09-23T20:38:14.535Z,1066.2
2022-09-23T20:39:58.377Z,1065.1
2022-09-23T20:41:41.954Z,1064.5
2022-09-23T20:43:25.641Z,1069
2022-09-23T20:45:09.336Z,1073.9
2022-09-23T20:46:53.091Z,1078.6
2022-09-23T20:48:36.734Z,1078.1
2022-09-23T20:50:20.447Z,1079.1
2022-09-23T20:52:04.153Z,1077.7
2022-09-23T20:53:47.859Z,1079.3
2022-09-23T20:55:31.557Z,1079.1
2022-09-23T20:57:15.254Z,1078.8
2022-09-23T20:58:58.993Z,1081.2
2022-09-23T21:00:42.650Z,1087.6
2022-09-23T21:02:26.359Z,1091.7
2022-09-23T21:04:10.105Z,1096.2
2022-09-23T21:05:53.796Z,1095.5
2022-09-23T21:07:37.472Z,1096.9
2022-09-23T21:09:21.172Z,1094.2
2022-09-23T21:11:04.871Z,1092.2
2022-09-23T21:12:48.567Z,1097.5
2022-09-23T21:14:32.271Z,1108
2022-09-23T21:16:15.970Z,1097.2
2022-09-23T21:17:59.678Z,1086.2
2022-09-23T21:19:43.388Z,1075.9
2022-09-23T21:21:27.117Z,1071.1
2022-09-23T21:23:10.795Z,1064.8
2022-09-23T21:24:54.492Z,1057.7
2022-09-23T21:26:38.283Z,1057.3
2022-09-23T21:28:21.950Z,1068.6
2022-09-23T21:30:05.591Z,1073.4
2022-09-23T21:31:49.324Z,1079.3
2022-09-23T21:33:32.990Z,1089.3
2022-09-23T21:35:16.716Z,1117.6
2022-09-23T21:37:00.385Z,1137.9
2022-09-23T21:38:44.097Z,1156.7
2022-09-23T21:40:27.863Z,1218.3
2022-09-23T21:42:11.612Z,1261.2
2022-09-23T21:43:55.196Z,1265
2022-09-23T21:45:38.919Z,1267.1
2022-09-23T21:47:22.623Z,1267.6
2022-09-23T21:49:06.312Z,1261.6
2022-09-23T21:50:50.020Z,1254.3
2022-09-23T21:52:33.733Z,1251
2022-09-23T21:54:17.436Z,1247.2
2022-09-23T21:56:01.143Z,1242.8
2022-09-23T21:57:44.839Z,1239.7
2022-09-23T21:59:28.548Z,1239.7
2022-09-23T22:01:12.229Z,1235.8
2022-09-23T22:02:55.942Z,1236.1
2022-09-23T22:04:39.646Z,1231.9
2022-09-23T22:06:23.393Z,1223.6
2022-09-23T22:08:07.056Z,1219
2022-09-23T22:09:50.735Z,1215.4
2022-09-23T22:11:34.433Z,1208.4
2022-09-23T22:13:18.131Z,1203.5
2022-09-23T22:15:01.846Z,1205.5
2022-09-23T22:16:45.550Z,1205.5
2022-09-23T22:18:29.240Z,1203.9
2022-09-23T22:20:12.983Z,1203.4
2022-09-23T22:21:56.640Z,1201